Time;durP1;ratioP1;P1;durP2;ratioP2;P2;SDS_P1;SDS_P2;PMS_P1;PMS_P2;Temp;Humidity;BMP_temperature;BMP_pressure;BME280_temperature;BME280_humidity;BME280_pressure;Samples;Min_cycle;Max_cycle;Signal;HPM_P1;HPM_P2
2021/06/21 00:02:22;;;;;;;0.00;0.00;;;22.50;99.90;;;;;;5073458;28;20024;-66
2021/06/21 00:04:51;;;;;;;0.90;0.90;;;22.50;99.90;;;;;;5059266;28;20097;-66
2021/06/21 00:07:20;;;;;;;0.10;0.10;;;22.60;99.90;;;;;;5046351;28;20086;-66
2021/06/21 00:09:46;;;;;;;0.03;0.03;;;22.60;99.90;;;;;;5071864;28;20032;-65
2021/06/21 00:12:13;;;;;;;0.08;0.08;;;22.60;99.90;;;;;;5060700;28;20425;-65
2021/06/21 00:14:39;;;;;;;0.10;0.10;;;22.50;99.90;;;;;;5074791;28;20024;-65
2021/06/21 00:17:05;;;;;;;0.00;0.00;;;22.50;99.90;;;;;;5072762;28;20028;-65
2021/06/21 00:19:34;;;;;;;0.08;0.08;;;22.50;99.90;;;;;;5072963;28;20040;-65
2021/06/21 00:22:04;;;;;;;0.00;0.00;;;22.50;99.90;;;;;;5071954;28;20048;-65
2021/06/21 00:24:30;;;;;;;0.03;0.03;;;22.50;99.90;;;;;;5055160;28;20025;-65
2021/06/21 00:26:56;;;;;;;0.10;0.10;;;22.50;99.90;;;;;;5072893;28;20468;-65
2021/06/21 00:29:24;;;;;;;0.00;0.00;;;22.40;99.90;;;;;;5072366;28;20461;-64
2021/06/21 00:31:49;;;;;;;0.00;0.00;;;22.40;99.90;;;;;;5071008;28;20021;-66
2021/06/21 00:34:15;;;;;;;0.10;0.10;;;22.50;99.90;;;;;;5071809;28;20025;-65
2021/06/21 00:36:43;;;;;;;0.00;0.00;;;22.50;99.90;;;;;;5053131;28;20103;-65
2021/06/21 00:39:09;;;;;;;0.10;0.10;;;22.50;99.90;;;;;;5071323;28;20031;-65
2021/06/21 00:41:37;;;;;;;0.00;0.00;;;22.40;99.90;;;;;;5070406;28;20021;-65
2021/06/21 00:44:04;;;;;;;0.10;0.10;;;22.40;99.90;;;;;;5072296;28;20016;-65
2021/06/21 00:46:30;;;;;;;0.08;0.08;;;22.30;99.90;;;;;;5051141;28;20029;-65
2021/06/21 00:48:55;;;;;;;0.08;0.08;;;22.30;99.90;;;;;;5070824;28;20020;-65
2021/06/21 00:51:22;;;;;;;0.08;0.08;;;22.30;99.90;;;;;;5072919;28;20047;-65
2021/06/21 00:53:50;;;;;;;0.08;0.08;;;22.20;99.90;;;;;;5070774;28;20177;-65
2021/06/21 00:56:16;;;;;;;0.00;0.00;;;22.20;99.90;;;;;;5072825;28;20024;-65
2021/06/21 00:58:42;;;;;;;0.00;0.00;;;22.20;99.90;;;;;;5072255;28;20032;-65
2021/06/21 01:01:10;;;;;;;0.10;0.10;;;22.20;99.90;;;;;;5071993;28;20073;-65
2021/06/21 01:03:36;;;;;;;0.00;0.00;;;22.20;99.90;;;;;;5072629;28;20477;-65
2021/06/21 01:06:03;;;;;;;0.00;0.00;;;22.20;99.90;;;;;;5053793;28;20027;-65
2021/06/21 01:08:29;;;;;;;0.00;0.00;;;22.20;99.90;;;;;;5073219;28;20039;-65
2021/06/21 01:10:56;;;;;;;0.00;0.00;;;22.30;99.90;;;;;;5074533;28;20025;-65
2021/06/21 01:13:43;;;;;;;0.05;0.05;;;22.20;99.90;;;;;;5048253;28;20460;-65
2021/06/21 01:16:15;;;;;;;0.00;0.00;;;22.30;99.90;;;;;;5079058;28;20124;-65
2021/06/21 01:18:56;;;;;;;0.10;0.10;;;22.30;99.90;;;;;;5059189;28;20092;-65
2021/06/21 01:22:00;;;;;;;0.03;0.03;;;22.30;99.90;;;;;;5046821;28;20023;-65
2021/06/21 01:24:45;;;;;;;0.00;0.00;;;22.30;99.90;;;;;;5073740;28;20474;-65
2021/06/21 01:27:35;;;;;;;0.00;0.00;;;22.30;99.90;;;;;;5075126;28;20314;-65
2021/06/21 01:30:08;;;;;;;0.00;0.00;;;22.30;99.90;;;;;;5073979;28;20028;-65
2021/06/21 01:32:46;;;;;;;0.10;0.10;;;22.30;99.90;;;;;;5076136;28;20020;-65
2021/06/21 01:35:23;;;;;;;0.00;0.00;;;22.20;99.90;;;;;;5074865;28;20583;-65
2021/06/21 01:37:52;;;;;;;0.00;0.00;;;22.20;99.90;;;;;;5077089;28;20370;-65
2021/06/21 01:40:21;;;;;;;0.00;0.00;;;22.10;99.90;;;;;;5057163;28;20120;-65
2021/06/21 01:42:53;;;;;;;0.00;0.00;;;22.10;99.90;;;;;;5057747;28;20024;-65
2021/06/21 01:45:22;;;;;;;0.00;0.00;;;22.00;99.90;;;;;;5058462;28;20033;-65
2021/06/21 01:47:49;;;;;;;0.00;0.00;;;21.90;99.90;;;;;;5074520;28;20035;-65
2021/06/21 01:50:21;;;;;;;0.10;0.10;;;21.90;99.90;;;;;;5075134;28;20040;-65
2021/06/21 01:52:52;;;;;;;0.00;0.00;;;21.80;99.90;;;;;;5046484;28;20420;-65
2021/06/21 01:55:21;;;;;;;0.00;0.00;;;21.80;99.90;;;;;;5074300;28;20025;-65
2021/06/21 01:57:48;;;;;;;0.10;0.10;;;21.80;99.90;;;;;;5072969;28;20111;-64
2021/06/21 02:00:15;;;;;;;0.10;0.10;;;21.80;99.90;;;;;;5062974;28;20112;-64
2021/06/21 02:02:44;;;;;;;0.10;0.10;;;21.80;99.90;;;;;;5073981;28;20093;-64
2021/06/21 02:05:14;;;;;;;0.10;0.10;;;21.80;99.90;;;;;;5074708;28;20040;-64
2021/06/21 02:07:42;;;;;;;0.03;0.03;;;21.70;99.90;;;;;;5073673;28;20051;-64
2021/06/21 02:10:08;;;;;;;0.10;0.10;;;21.50;99.90;;;;;;5073415;28;20031;-64
2021/06/21 02:12:37;;;;;;;0.10;0.10;;;21.40;99.90;;;;;;5073945;28;20024;-64
2021/06/21 02:15:04;;;;;;;0.10;0.10;;;21.50;99.90;;;;;;5074583;28;20723;-64
2021/06/21 02:17:30;;;;;;;0.10;0.10;;;21.40;99.90;;;;;;5075147;28;21945;-65
2021/06/21 02:19:57;;;;;;;0.08;0.08;;;21.50;99.90;;;;;;5074106;28;20016;-64
2021/06/21 02:22:27;;;;;;;0.10;0.10;;;21.40;99.90;;;;;;5073730;28;20024;-64
2021/06/21 02:24:56;;;;;;;0.10;0.10;;;21.40;99.90;;;;;;5054428;28;20028;-64
2021/06/21 02:27:22;;;;;;;0.00;0.00;;;21.40;99.90;;;;;;5058314;28;20093;-65
2021/06/21 02:29:50;;;;;;;0.00;0.00;;;21.30;99.90;;;;;;5074592;28;20032;-65
2021/06/21 02:32:24;;;;;;;0.10;0.10;;;21.30;99.90;;;;;;5075269;28;20095;-65
2021/06/21 02:34:54;;;;;;;0.00;0.00;;;21.30;99.90;;;;;;5073830;28;20078;-65
2021/06/21 02:37:19;;;;;;;0.08;0.08;;;21.30;99.90;;;;;;5073398;28;20043;-64
2021/06/21 02:39:45;;;;;;;0.00;0.00;;;21.30;99.90;;;;;;5056228;28;20020;-64
2021/06/21 02:42:11;;;;;;;0.10;0.10;;;21.20;99.90;;;;;;5058693;28;20048;-64
2021/06/21 02:44:41;;;;;;;0.10;0.10;;;21.10;99.90;;;;;;5075598;28;20397;-64
2021/06/21 02:47:07;;;;;;;0.00;0.00;;;21.10;99.90;;;;;;5074169;28;20036;-65
2021/06/21 02:49:34;;;;;;;0.00;0.00;;;21.10;99.90;;;;;;5072939;28;20024;-64
2021/06/21 02:52:26;;;;;;;0.03;0.03;;;21.10;99.90;;;;;;5046322;28;20032;-64
2021/06/21 02:55:10;;;;;;;0.10;0.10;;;21.10;99.90;;;;;;5073336;28;20039;-65
2021/06/21 02:57:55;;;;;;;0.10;0.10;;;21.00;99.90;;;;;;5074792;28;20020;-65
2021/06/21 03:00:22;;;;;;;0.10;0.10;;;21.10;99.90;;;;;;5073850;28;20028;-64
2021/06/21 03:02:48;;;;;;;0.10;0.10;;;21.10;99.90;;;;;;5074542;28;20452;-65
2021/06/21 03:05:18;;;;;;;0.10;0.10;;;21.10;99.90;;;;;;5075435;28;20044;-65
2021/06/21 03:07:49;;;;;;;0.10;0.10;;;21.10;99.90;;;;;;5074228;28;20082;-65
2021/06/21 03:10:15;;;;;;;0.85;0.85;;;21.20;99.90;;;;;;5075229;28;20028;-65
2021/06/21 03:12:43;;;;;;;0.10;0.10;;;21.20;99.90;;;;;;5055648;28;20516;-65
2021/06/21 03:15:14;;;;;;;0.00;0.00;;;21.10;99.90;;;;;;5075326;28;20248;-64
2021/06/21 03:17:40;;;;;;;0.10;0.10;;;21.10;99.90;;;;;;5073757;28;20025;-65
2021/06/21 03:20:06;;;;;;;0.00;0.00;;;20.90;99.90;;;;;;5075077;28;20024;-65
2021/06/21 03:22:32;;;;;;;0.00;0.00;;;20.90;99.90;;;;;;5073097;28;20040;-65
2021/06/21 03:24:58;;;;;;;0.00;0.00;;;20.90;99.90;;;;;;5072605;28;20345;-65
2021/06/21 03:27:32;;;;;;;0.08;0.08;;;20.80;99.90;;;;;;5073368;28;20036;-65
2021/06/21 03:30:01;;;;;;;0.00;0.00;;;20.80;99.90;;;;;;5071985;28;20028;-64
2021/06/21 03:32:32;;;;;;;0.00;0.00;;;20.70;99.90;;;;;;5056658;28;20065;-65
2021/06/21 03:35:06;;;;;;;0.05;0.05;;;20.70;99.90;;;;;;5054075;28;20036;-65
2021/06/21 03:37:31;;;;;;;0.10;0.10;;;20.70;99.90;;;;;;5073459;28;20020;-65
2021/06/21 03:39:57;;;;;;;0.10;0.10;;;20.70;99.90;;;;;;5072127;28;20025;-65
2021/06/21 03:42:23;;;;;;;0.10;0.10;;;20.60;99.90;;;;;;5072645;28;20028;-65
2021/06/21 03:44:50;;;;;;;0.10;0.10;;;20.60;99.90;;;;;;5071950;28;20043;-65
2021/06/21 03:47:20;;;;;;;0.00;0.00;;;20.50;99.90;;;;;;5071948;28;20020;-65
2021/06/21 03:49:49;;;;;;;0.00;0.00;;;20.50;99.90;;;;;;5073959;28;20044;-65
2021/06/21 03:52:16;;;;;;;0.00;0.00;;;20.60;99.90;;;;;;5073686;28;20084;-65
2021/06/21 03:54:44;;;;;;;0.10;0.10;;;20.60;99.90;;;;;;5072777;28;20436;-64
2021/06/21 03:57:13;;;;;;;0.10;0.10;;;20.50;99.90;;;;;;5074452;28;20107;-65
2021/06/21 03:59:41;;;;;;;0.10;0.10;;;20.50;99.90;;;;;;5072570;28;20522;-65
2021/06/21 04:02:06;;;;;;;0.10;0.10;;;20.50;99.90;;;;;;5073729;28;20032;-65
2021/06/21 04:04:32;;;;;;;0.10;0.10;;;20.40;99.90;;;;;;5072225;28;20025;-64
2021/06/21 04:06:58;;;;;;;0.10;0.10;;;20.40;99.90;;;;;;5071917;28;20112;-65
2021/06/21 04:09:23;;;;;;;0.05;0.05;;;20.40;99.90;;;;;;5054541;28;20040;-65
2021/06/21 04:11:50;;;;;;;0.10;0.10;;;20.40;99.90;;;;;;5072771;28;20090;-65
2021/06/21 04:14:18;;;;;;;0.00;0.00;;;20.40;99.90;;;;;;5073630;28;20115;-65
2021/06/21 04:16:43;;;;;;;0.10;0.10;;;20.40;99.90;;;;;;5071534;28;20085;-65
2021/06/21 04:19:09;;;;;;;0.00;0.00;;;20.40;99.90;;;;;;5075152;28;20036;-65
2021/06/21 04:21:35;;;;;;;0.10;0.10;;;20.40;99.90;;;;;;5055289;28;20436;-64
2021/06/21 04:24:01;;;;;;;0.10;0.10;;;20.50;99.90;;;;;;5073008;28;20036;-64
2021/06/21 04:26:26;;;;;;;0.00;0.00;;;20.40;99.90;;;;;;5043503;28;20103;-65
2021/06/21 04:28:52;;;;;;;0.00;0.00;;;20.50;99.90;;;;;;5073472;28;20037;-65
2021/06/21 04:31:20;;;;;;;0.00;0.00;;;20.40;99.90;;;;;;5071728;28;20062;-65
2021/06/21 04:33:46;;;;;;;0.10;0.10;;;20.40;99.90;;;;;;5071073;28;20201;-65
2021/06/21 04:36:14;;;;;;;0.00;0.00;;;20.40;99.90;;;;;;5072816;28;20016;-65
2021/06/21 04:38:40;;;;;;;0.00;0.00;;;20.40;99.90;;;;;;5071550;28;20025;-65
2021/06/21 04:41:08;;;;;;;0.10;0.10;;;20.50;99.90;;;;;;5072508;28;20030;-64
2021/06/21 04:43:34;;;;;;;0.00;0.00;;;20.50;99.90;;;;;;5053697;28;20032;-65
2021/06/21 04:46:03;;;;;;;0.00;0.00;;;20.50;99.90;;;;;;5051510;28;20124;-65
2021/06/21 04:48:31;;;;;;;0.10;0.10;;;20.60;99.90;;;;;;5054103;28;20036;-65
2021/06/21 04:50:57;;;;;;;0.10;0.10;;;20.60;99.90;;;;;;5071608;28;20371;-65
2021/06/21 04:53:25;;;;;;;0.00;0.00;;;20.70;99.90;;;;;;5072954;28;20021;-65
2021/06/21 04:55:50;;;;;;;0.00;0.00;;;20.70;99.90;;;;;;5069701;28;20028;-64
2021/06/21 04:58:16;;;;;;;0.00;0.00;;;20.70;99.90;;;;;;5072921;28;20131;-65
2021/06/21 05:00:42;;;;;;;0.10;0.10;;;20.70;99.90;;;;;;5073663;28;20033;-64
2021/06/21 05:03:09;;;;;;;0.00;0.00;;;20.60;99.90;;;;;;5074026;28;20031;-65
2021/06/21 05:05:37;;;;;;;0.10;0.10;;;20.60;99.90;;;;;;5072379;28;20049;-65
2021/06/21 05:08:06;;;;;;;0.00;0.00;;;20.60;99.90;;;;;;5074016;28;20043;-65
2021/06/21 05:10:31;;;;;;;0.00;0.00;;;20.60;99.90;;;;;;5073087;28;20135;-65
2021/06/21 05:12:59;;;;;;;0.08;0.08;;;20.60;99.90;;;;;;5072061;28;20241;-65
2021/06/21 05:15:25;;;;;;;0.00;0.00;;;20.60;99.90;;;;;;5055709;28;20035;-65
2021/06/21 05:17:51;;;;;;;0.00;0.00;;;20.60;99.90;;;;;;5054956;28;20368;-65
2021/06/21 05:20:16;;;;;;;0.00;0.00;;;20.70;99.90;;;;;;5074098;28;20479;-65
2021/06/21 05:22:48;;;;;;;0.10;0.10;;;20.70;99.90;;;;;;5055793;28;20024;-64
2021/06/21 05:25:17;;;;;;;0.00;0.00;;;20.60;99.90;;;;;;5071171;28;20353;-64
2021/06/21 05:27:42;;;;;;;0.05;0.05;;;20.70;99.90;;;;;;5043875;28;20059;-65
2021/06/21 05:30:11;;;;;;;0.10;0.10;;;20.80;99.90;;;;;;5072278;28;20052;-65
2021/06/21 05:32:39;;;;;;;0.10;0.10;;;20.80;99.90;;;;;;5072031;28;20032;-65
2021/06/21 05:35:09;;;;;;;0.10;0.10;;;20.80;99.90;;;;;;5072439;28;20044;-65
2021/06/21 05:37:35;;;;;;;0.00;0.00;;;20.70;99.90;;;;;;5073923;28;20031;-66
2021/06/21 05:40:07;;;;;;;0.00;0.00;;;20.70;99.90;;;;;;5054947;28;20037;-65
2021/06/21 05:42:32;;;;;;;0.10;0.10;;;20.80;99.90;;;;;;5069939;28;20028;-65
2021/06/21 05:45:01;;;;;;;0.10;0.10;;;20.80;99.90;;;;;;5073195;28;20044;-64
2021/06/21 05:47:26;;;;;;;0.08;0.08;;;20.90;99.90;;;;;;5069429;28;20032;-65
2021/06/21 05:49:53;;;;;;;0.05;0.05;;;21.00;99.90;;;;;;5068794;28;20028;-64
2021/06/21 05:52:19;;;;;;;0.00;0.00;;;21.00;99.90;;;;;;5069295;28;20024;-64
2021/06/21 05:54:47;;;;;;;0.00;0.00;;;21.00;99.90;;;;;;5070806;28;20357;-65
2021/06/21 05:57:12;;;;;;;0.00;0.00;;;21.00;99.90;;;;;;5073417;28;20020;-64
2021/06/21 05:59:38;;;;;;;0.00;0.00;;;21.10;99.90;;;;;;5075005;28;20039;-65
2021/06/21 06:02:04;;;;;;;0.10;0.10;;;21.10;99.90;;;;;;5059406;28;20040;-64
2021/06/21 06:04:32;;;;;;;0.00;0.00;;;21.10;99.90;;;;;;5077956;28;20024;-65
2021/06/21 06:07:02;;;;;;;0.03;0.03;;;21.10;99.90;;;;;;5074001;28;20030;-65
2021/06/21 06:09:27;;;;;;;0.00;0.00;;;21.20;99.90;;;;;;5075820;28;20033;-65
2021/06/21 06:11:53;;;;;;;0.10;0.10;;;21.30;99.90;;;;;;5073963;28;20066;-64
2021/06/21 06:14:19;;;;;;;0.00;0.00;;;21.40;99.90;;;;;;5076230;28;20353;-65
2021/06/21 06:16:48;;;;;;;0.00;0.00;;;21.50;99.90;;;;;;5073479;28;20039;-64
2021/06/21 06:19:13;;;;;;;0.00;0.00;;;21.50;99.90;;;;;;5077959;28;20030;-65
2021/06/21 06:21:42;;;;;;;0.00;0.00;;;21.40;99.90;;;;;;5074874;28;20017;-65
2021/06/21 06:24:08;;;;;;;0.00;0.00;;;21.40;99.90;;;;;;5075323;28;20016;-64
2021/06/21 06:26:36;;;;;;;0.00;0.00;;;21.30;99.90;;;;;;5075032;28;20394;-64
2021/06/21 06:29:07;;;;;;;0.00;0.00;;;21.30;99.90;;;;;;5056398;28;20492;-66
2021/06/21 06:31:35;;;;;;;0.03;0.03;;;21.30;99.90;;;;;;5074487;28;20036;-65
2021/06/21 06:34:01;;;;;;;0.10;0.10;;;21.30;99.90;;;;;;5058142;28;20035;-63
2021/06/21 06:36:26;;;;;;;0.10;0.10;;;21.00;99.90;;;;;;5073562;28;20024;-61
2021/06/21 06:38:52;;;;;;;0.10;0.10;;;20.70;99.90;;;;;;5073731;28;20043;-62
2021/06/21 06:41:17;;;;;;;0.10;0.10;;;20.60;99.90;;;;;;5073660;28;20563;-62
2021/06/21 06:43:43;;;;;;;6.55;6.18;;;20.70;99.90;;;;;;5073303;28;20024;-62
2021/06/21 06:46:09;;;;;;;0.00;0.00;;;20.70;99.90;;;;;;5073615;28;20478;-61
2021/06/21 06:48:39;;;;;;;0.10;0.10;;;20.70;99.90;;;;;;5045214;28;20043;-62
2021/06/21 06:51:07;;;;;;;0.10;0.10;;;20.70;99.90;;;;;;5076588;28;20033;-62
2021/06/21 06:53:46;;;;;;;0.00;0.00;;;20.80;99.90;;;;;;5053565;28;20498;-61
2021/06/21 06:58:56;;;;;;;0.00;0.00;;;20.90;99.90;;;;;;5070304;28;20396;-62
2021/06/21 07:01:25;;;;;;;0.00;0.00;;;20.90;99.90;;;;;;5073009;28;20063;-61
2021/06/21 07:03:54;;;;;;;0.00;0.00;;;20.90;99.90;;;;;;5072143;28;20085;-62
2021/06/21 07:06:19;;;;;;;0.00;0.00;;;21.00;99.90;;;;;;5073163;28;20121;-63
2021/06/21 07:08:46;;;;;;;0.00;0.00;;;21.00;99.90;;;;;;5071485;28;20036;-62
2021/06/21 07:11:18;;;;;;;0.00;0.00;;;21.10;99.90;;;;;;5072382;28;20024;-62
2021/06/21 07:13:44;;;;;;;0.00;0.00;;;21.20;99.90;;;;;;5070932;28;20481;-62
2021/06/21 07:16:12;;;;;;;0.00;0.00;;;21.30;99.90;;;;;;5071699;28;20028;-62
2021/06/21 07:18:38;;;;;;;0.10;0.10;;;21.40;99.90;;;;;;5075030;28;20362;-63
2021/06/21 07:21:04;;;;;;;0.00;0.00;;;21.40;99.90;;;;;;5073652;28;20035;-64
2021/06/21 07:23:33;;;;;;;0.10;0.10;;;21.30;99.90;;;;;;5072054;28;20548;-63
2021/06/21 07:26:01;;;;;;;0.00;0.00;;;21.40;99.90;;;;;;5057221;28;20023;-63
2021/06/21 07:28:27;;;;;;;0.00;0.00;;;21.40;99.90;;;;;;5071038;28;20025;-63
2021/06/21 07:30:52;;;;;;;0.00;0.00;;;21.40;99.90;;;;;;5072483;28;20093;-64
2021/06/21 07:33:20;;;;;;;0.00;0.00;;;21.40;99.90;;;;;;5074950;28;20361;-63
2021/06/21 07:35:46;;;;;;;0.00;0.00;;;21.50;99.90;;;;;;5075742;28;20016;-64
2021/06/21 07:38:12;;;;;;;0.00;0.00;;;21.60;99.90;;;;;;5074188;28;20024;-63
2021/06/21 07:40:39;;;;;;;0.00;0.00;;;21.80;99.90;;;;;;5073376;28;20052;-65
2021/06/21 07:43:04;;;;;;;0.00;0.00;;;21.90;99.90;;;;;;5072338;28;20028;-63
2021/06/21 07:45:33;;;;;;;0.00;0.00;;;22.10;99.90;;;;;;5055682;28;20094;-63
2021/06/21 07:48:01;;;;;;;0.05;0.05;;;22.20;99.90;;;;;;5071541;28;20337;-63
2021/06/21 07:50:31;;;;;;;0.00;0.00;;;22.20;99.90;;;;;;5074133;28;20020;-63
2021/06/21 07:53:02;;;;;;;0.00;0.00;;;22.10;99.90;;;;;;5058338;28;20458;-62
2021/06/21 07:55:33;;;;;;;0.70;0.30;;;21.80;99.90;;;;;;5045065;28;20097;-63
2021/06/21 07:57:59;;;;;;;0.00;0.00;;;21.50;99.90;;;;;;5070836;28;20028;-63
2021/06/21 08:00:26;;;;;;;0.00;0.00;;;21.30;99.90;;;;;;5055606;28;20180;-64
2021/06/21 08:02:53;;;;;;;0.00;0.00;;;21.10;99.90;;;;;;5071689;28;20036;-63
2021/06/21 08:05:22;;;;;;;0.10;0.10;;;21.10;99.90;;;;;;5072546;28;20123;-63
2021/06/21 08:07:49;;;;;;;0.08;0.08;;;21.20;99.90;;;;;;5072713;28;20028;-63
2021/06/21 08:10:15;;;;;;;0.10;0.10;;;21.40;99.90;;;;;;5071671;28;20095;-64
2021/06/21 08:12:44;;;;;;;0.00;0.00;;;21.50;99.90;;;;;;5070863;28;20101;-65
2021/06/21 08:15:14;;;;;;;0.00;0.00;;;21.70;99.90;;;;;;5073185;28;20036;-65
2021/06/21 08:17:44;;;;;;;0.00;0.00;;;21.70;99.90;;;;;;5071466;28;20028;-64
2021/06/21 08:20:12;;;;;;;0.00;0.00;;;21.60;99.90;;;;;;5070248;28;20046;-63
2021/06/21 08:22:39;;;;;;;0.00;0.00;;;21.50;99.90;;;;;;5042761;28;20032;-65
2021/06/21 08:25:06;;;;;;;0.00;0.00;;;21.50;99.90;;;;;;5073295;28;20046;-65
2021/06/21 08:27:31;;;;;;;0.00;0.00;;;21.60;99.90;;;;;;5074436;28;20100;-65
2021/06/21 08:29:59;;;;;;;0.00;0.00;;;21.50;99.90;;;;;;5055102;28;20036;-63
2021/06/21 08:32:25;;;;;;;0.03;0.03;;;21.30;99.90;;;;;;5072674;28;20119;-64
2021/06/21 08:34:53;;;;;;;0.03;0.03;;;21.20;99.90;;;;;;5071974;28;20082;-64
2021/06/21 08:37:21;;;;;;;0.00;0.00;;;21.10;99.90;;;;;;5072255;28;20535;-64
2021/06/21 08:39:48;;;;;;;0.00;0.00;;;21.20;99.90;;;;;;5070060;28;20032;-64
2021/06/21 08:42:15;;;;;;;0.65;0.65;;;21.40;99.90;;;;;;5072177;28;20063;-63
2021/06/21 08:44:41;;;;;;;0.00;0.00;;;21.80;99.90;;;;;;5053768;28;20070;-64
2021/06/21 08:47:12;;;;;;;0.00;0.00;;;21.80;99.90;;;;;;5072071;28;20032;-65
2021/06/21 08:49:44;;;;;;;0.00;0.00;;;21.40;99.90;;;;;;5069015;28;20036;-64
2021/06/21 08:52:12;;;;;;;0.10;0.10;;;21.00;99.90;;;;;;5074632;28;20059;-64
2021/06/21 08:54:37;;;;;;;0.00;0.00;;;20.60;99.90;;;;;;5071583;28;20029;-64
2021/06/21 08:57:07;;;;;;;0.10;0.10;;;20.30;99.90;;;;;;5072337;28;20035;-63
2021/06/21 08:59:35;;;;;;;0.10;0.10;;;20.10;99.90;;;;;;5071346;28;20059;-64
2021/06/21 09:02:01;;;;;;;0.10;0.10;;;19.70;99.90;;;;;;5073049;28;20025;-63
2021/06/21 09:04:30;;;;;;;0.10;0.10;;;19.40;99.90;;;;;;5074209;28;20101;-63
2021/06/21 09:07:24;;;;;;;0.10;0.10;;;19.10;99.90;;;;;;5072414;28;20344;-63
2021/06/21 09:09:53;;;;;;;5.28;3.83;;;18.90;99.90;;;;;;5073283;28;20090;-63
2021/06/21 09:12:27;;;;;;;0.32;0.32;;;18.60;99.90;;;;;;5071158;28;20059;-62
2021/06/21 09:15:00;;;;;;;0.10;0.10;;;18.40;99.90;;;;;;5072935;28;20098;-63
2021/06/21 09:17:35;;;;;;;0.10;0.10;;;18.20;99.90;;;;;;5073671;28;20035;-63
2021/06/21 09:20:09;;;;;;;0.10;0.10;;;18.20;99.90;;;;;;5073687;28;20040;-63
2021/06/21 09:22:37;;;;;;;0.10;0.10;;;18.30;99.90;;;;;;5070907;28;20081;-63
2021/06/21 09:25:11;;;;;;;0.00;0.00;;;18.50;99.90;;;;;;5053089;28;20086;-63
2021/06/21 09:27:39;;;;;;;0.00;0.00;;;18.50;99.90;;;;;;5041906;28;20020;-63
2021/06/21 09:30:12;;;;;;;0.10;0.10;;;18.50;99.90;;;;;;5069911;28;20055;-63
2021/06/21 09:32:41;;;;;;;0.00;0.00;;;18.40;99.90;;;;;;5057186;28;20028;-64
2021/06/21 09:35:31;;;;;;;0.03;0.03;;;18.40;99.90;;;;;;5059368;28;20029;-64
2021/06/21 09:38:00;;;;;;;0.00;0.00;;;18.50;99.90;;;;;;5061280;28;20507;-64
2021/06/21 09:40:30;;;;;;;0.00;0.00;;;18.70;99.90;;;;;;5078373;28;20031;-64
2021/06/21 09:42:58;;;;;;;0.10;0.10;;;19.00;99.90;;;;;;5076283;28;20064;-64
2021/06/21 09:45:26;;;;;;;0.00;0.00;;;19.30;99.90;;;;;;5076310;28;20043;-65
2021/06/21 09:47:52;;;;;;;0.10;0.10;;;19.60;99.90;;;;;;5075475;28;20081;-64
2021/06/21 09:50:26;;;;;;;0.00;0.00;;;20.00;99.90;;;;;;5055678;28;20032;-64
2021/06/21 09:52:54;;;;;;;0.00;0.00;;;20.40;99.90;;;;;;5041758;28;20432;-64
2021/06/21 09:55:30;;;;;;;0.00;0.00;;;20.50;99.90;;;;;;5073479;28;20039;-65
2021/06/21 09:58:08;;;;;;;0.00;0.00;;;20.40;99.90;;;;;;5076362;28;20012;-64
2021/06/21 10:00:35;;;;;;;0.10;0.10;;;20.10;99.90;;;;;;5070721;28;20025;-64
2021/06/21 10:03:06;;;;;;;0.00;0.00;;;19.70;99.90;;;;;;5073608;28;20437;-65
2021/06/21 10:05:36;;;;;;;0.00;0.00;;;19.50;99.90;;;;;;5075971;28;21709;-64
2021/06/21 10:08:01;;;;;;;0.10;0.10;;;19.30;99.90;;;;;;5057543;28;20028;-64
2021/06/21 10:10:32;;;;;;;0.00;0.00;;;19.30;99.90;;;;;;5056858;28;20039;-65
2021/06/21 10:12:57;;;;;;;0.00;0.00;;;19.60;99.90;;;;;;5057890;28;20094;-64
2021/06/21 10:15:23;;;;;;;0.00;0.00;;;19.80;99.90;;;;;;5053056;28;20028;-64
2021/06/21 10:17:51;;;;;;;0.10;0.10;;;20.00;99.90;;;;;;5047117;28;20021;-65
2021/06/21 10:20:17;;;;;;;0.10;0.10;;;20.00;99.90;;;;;;5054488;28;20036;-65
2021/06/21 10:22:43;;;;;;;0.03;0.03;;;19.90;99.90;;;;;;5053331;28;20040;-64
2021/06/21 10:25:11;;;;;;;0.00;0.00;;;19.80;99.90;;;;;;5052113;28;20041;-65
2021/06/21 10:27:45;;;;;;;0.00;0.00;;;19.70;99.90;;;;;;5054733;28;20120;-65
2021/06/21 10:30:20;;;;;;;0.10;0.10;;;19.50;99.90;;;;;;5041221;28;20029;-64
2021/06/21 10:32:52;;;;;;;0.00;0.00;;;19.40;99.90;;;;;;5052088;28;20051;-65
2021/06/21 10:35:24;;;;;;;0.00;0.00;;;19.40;99.90;;;;;;5055246;28;20016;-64
2021/06/21 10:38:01;;;;;;;0.10;0.10;;;19.40;99.90;;;;;;5053304;28;20094;-64
2021/06/21 10:40:27;;;;;;;0.00;0.00;;;19.20;99.90;;;;;;5053728;28;20035;-65
2021/06/21 10:42:53;;;;;;;0.00;0.00;;;19.20;99.90;;;;;;5040859;28;20600;-65
2021/06/21 10:45:29;;;;;;;0.00;0.00;;;19.30;99.90;;;;;;5053795;28;20029;-65
2021/06/21 10:48:10;;;;;;;0.10;0.10;;;19.30;99.90;;;;;;5053428;28;20025;-64
2021/06/21 10:50:51;;;;;;;0.10;0.10;;;19.20;99.90;;;;;;5041788;28;20037;-65
2021/06/21 10:53:16;;;;;;;0.00;0.00;;;19.20;99.90;;;;;;5051285;28;20612;-65
2021/06/21 10:55:48;;;;;;;0.10;0.10;;;19.20;99.90;;;;;;5052215;28;20028;-64
2021/06/21 10:58:25;;;;;;;0.10;0.10;;;19.40;99.90;;;;;;5054137;28;20025;-65
2021/06/21 11:00:52;;;;;;;0.10;0.10;;;19.30;99.90;;;;;;5053763;28;20024;-65
2021/06/21 11:03:31;;;;;;;0.10;0.10;;;19.20;99.90;;;;;;5053688;28;20472;-65
2021/06/21 11:06:07;;;;;;;0.00;0.00;;;19.00;99.90;;;;;;5052664;28;20087;-64
2021/06/21 11:08:42;;;;;;;0.00;0.00;;;18.90;99.90;;;;;;5051790;28;20033;-64
2021/06/21 11:11:32;;;;;;;0.10;0.10;;;18.90;99.90;;;;;;5052546;28;20016;-63
2021/06/21 11:14:19;;;;;;;0.00;0.00;;;19.00;99.90;;;;;;5068707;28;20625;-65
2021/06/21 11:16:47;;;;;;;0.10;0.10;;;19.10;99.90;;;;;;5072507;28;20029;-64
2021/06/21 11:19:24;;;;;;;0.00;0.00;;;19.10;99.90;;;;;;5070364;28;20099;-64
2021/06/21 11:22:01;;;;;;;0.10;0.10;;;19.00;99.90;;;;;;5073413;28;20487;-64
2021/06/21 11:24:38;;;;;;;0.00;0.00;;;19.00;99.90;;;;;;5070632;28;20581;-64
2021/06/21 11:27:05;;;;;;;0.00;0.00;;;19.20;99.90;;;;;;5071525;28;20059;-64
2021/06/21 11:29:36;;;;;;;0.00;0.00;;;19.60;99.90;;;;;;5071490;28;20038;-63
2021/06/21 11:32:08;;;;;;;0.10;0.10;;;19.80;99.90;;;;;;5074325;28;20051;-64
2021/06/21 11:34:59;;;;;;;0.08;0.08;;;20.00;99.90;;;;;;5073656;28;20081;-66
2021/06/21 11:37:37;;;;;;;0.00;0.00;;;20.10;99.90;;;;;;5073315;28;20089;-65
2021/06/21 11:40:15;;;;;;;0.00;0.00;;;20.20;99.90;;;;;;5073852;28;20020;-63
2021/06/21 11:43:05;;;;;;;0.10;0.10;;;20.20;99.90;;;;;;5070648;28;20048;-65
2021/06/21 11:46:00;;;;;;;0.00;0.00;;;20.10;99.90;;;;;;5070824;28;20403;-64
2021/06/21 11:48:25;;;;;;;0.00;0.00;;;20.10;99.90;;;;;;5071170;28;20067;-63
2021/06/21 11:50:52;;;;;;;0.10;0.10;;;19.90;99.90;;;;;;5054831;28;20807;-64
2021/06/21 11:53:22;;;;;;;0.00;0.00;;;19.80;99.90;;;;;;5054939;28;20158;-64
2021/06/21 11:55:48;;;;;;;0.10;0.10;;;19.70;99.90;;;;;;5054736;28;20101;-65
2021/06/21 11:58:13;;;;;;;0.00;0.00;;;19.70;99.90;;;;;;5070814;28;20482;-65
2021/06/21 12:00:39;;;;;;;0.10;0.10;;;19.60;99.90;;;;;;5070696;28;20102;-64
2021/06/21 12:03:12;;;;;;;0.03;0.03;;;19.40;99.90;;;;;;5071679;28;20055;-63
2021/06/21 12:05:38;;;;;;;0.10;0.10;;;19.30;99.90;;;;;;5042492;28;20595;-65
2021/06/21 12:08:16;;;;;;;0.00;0.00;;;19.20;99.90;;;;;;5073538;28;20039;-63
2021/06/21 12:10:42;;;;;;;0.10;0.10;;;19.20;99.90;;;;;;5072302;28;20040;-63
2021/06/21 12:13:09;;;;;;;0.03;0.03;;;19.10;99.90;;;;;;5073320;28;20178;-63
2021/06/21 12:15:37;;;;;;;0.00;0.00;;;19.00;99.90;;;;;;5072422;28;20103;-64
2021/06/21 12:18:03;;;;;;;0.00;0.00;;;19.10;99.90;;;;;;5070641;28;20404;-64
2021/06/21 12:20:33;;;;;;;0.00;0.00;;;19.20;99.90;;;;;;5071939;28;20032;-64
2021/06/21 12:23:10;;;;;;;0.10;0.10;;;19.30;99.90;;;;;;5053289;28;20029;-62
2021/06/21 12:25:39;;;;;;;0.10;0.10;;;19.30;99.90;;;;;;5053030;28;20089;-64
2021/06/21 12:28:23;;;;;;;0.10;0.10;;;19.10;99.90;;;;;;5073340;28;20711;-65
2021/06/21 12:30:52;;;;;;;0.00;0.00;;;19.00;99.90;;;;;;5041989;28;20389;-64
2021/06/21 12:33:34;;;;;;;0.10;0.10;;;18.90;99.90;;;;;;5071097;28;20020;-63
2021/06/21 12:36:09;;;;;;;0.10;0.10;;;18.90;99.90;;;;;;5071985;28;20048;-63
2021/06/21 12:38:51;;;;;;;0.10;0.10;;;18.80;99.90;;;;;;5039106;28;20028;-64
2021/06/21 12:41:28;;;;;;;;;;;18.80;99.90;;;;;;5040877;28;20029;-65
2021/06/21 12:44:12;;;;;;;0.08;0.08;;;19.00;99.90;;;;;;5054005;28;19920;-64
2021/06/21 12:46:46;;;;;;;0.00;0.00;;;19.10;99.90;;;;;;5069949;28;20648;-63
2021/06/21 12:49:21;;;;;;;0.10;0.10;;;19.00;99.90;;;;;;5071077;28;20070;-64
2021/06/21 12:51:50;;;;;;;0.00;0.00;;;19.00;99.90;;;;;;5070060;28;20029;-64
2021/06/21 12:54:25;;;;;;;0.10;0.10;;;19.10;99.90;;;;;;5067847;28;20634;-64
2021/06/21 12:56:56;;;;;;;0.10;0.10;;;19.10;99.90;;;;;;5034748;28;20598;-65
2021/06/21 12:59:34;;;;;;;0.10;0.10;;;19.10;99.90;;;;;;5069612;28;20035;-65
2021/06/21 13:02:04;;;;;;;0.10;0.10;;;19.10;99.90;;;;;;5070460;28;20035;-65
2021/06/21 13:04:33;;;;;;;0.00;0.00;;;18.80;99.90;;;;;;5071130;28;20156;-65